createdAt,value
2023-02-16T00:01:15.958Z,0.02
2023-02-16T00:03:42.436Z,0.06
2023-02-16T00:06:14.378Z,0.01
2023-02-16T00:08:40.932Z,-0.01
2023-02-16T00:11:34.388Z,0.03
2023-02-16T00:14:01.220Z,0.12
2023-02-16T00:16:28.185Z,0.06
2023-02-16T00:18:54.584Z,-0.03
2023-02-16T00:21:21.429Z,0.02
2023-02-16T00:23:48.475Z,-0.08
2023-02-16T00:26:18.166Z,-0.07
2023-02-16T00:28:46.468Z,-0.04
2023-02-16T00:31:22.050Z,-0.01
2023-02-16T00:33:49.078Z,-0.04
2023-02-16T00:36:15.934Z,0.03
2023-02-16T00:38:42.981Z,-0.10
2023-02-16T00:41:40.917Z,-0.06
2023-02-16T00:44:16.405Z,-0.09
2023-02-16T00:46:44.607Z,-0.14
2023-02-16T00:49:15.709Z,-0.09
2023-02-16T00:51:42.909Z,-0.13
2023-02-16T00:54:09.492Z,-0.17
2023-02-16T00:56:36.473Z,-0.12
2023-02-16T00:59:05.798Z,-0.17
2023-02-16T01:01:34.246Z,-0.12
2023-02-16T01:04:04.365Z,-0.18
2023-02-16T01:06:49.169Z,-0.13
2023-02-16T01:09:36.875Z,-0.20
2023-02-16T01:12:10.104Z,-0.20
2023-02-16T01:14:36.501Z,-0.20
2023-02-16T01:17:03.027Z,-0.24
2023-02-16T01:19:29.474Z,-0.22
2023-02-16T01:21:55.853Z,-0.20
2023-02-16T01:24:22.199Z,-0.21
2023-02-16T01:26:50.918Z,-0.25
2023-02-16T01:29:20.134Z,-0.24
2023-02-16T01:31:47.145Z,-0.22
2023-02-16T01:34:14.575Z,-0.24
2023-02-16T01:36:46.525Z,-0.22
2023-02-16T01:39:20.332Z,-0.27
2023-02-16T01:42:02.980Z,-0.29
2023-02-16T01:44:45.092Z,-0.30
2023-02-16T01:47:44.796Z,-0.37
2023-02-16T01:50:23.907Z,-0.37
2023-02-16T01:53:06.323Z,-0.33
2023-02-16T01:55:37.877Z,-0.37
2023-02-16T01:58:35.649Z,-0.36
2023-02-16T02:01:02.201Z,-0.35
2023-02-16T02:03:52.098Z,-0.42
2023-02-16T02:06:26.130Z,-0.38
2023-02-16T02:09:08.218Z,-0.37
2023-02-16T02:11:45.223Z,-0.47
2023-02-16T02:14:19.883Z,-0.42
2023-02-16T02:16:58.437Z,-0.44
2023-02-16T02:19:25.364Z,-0.46
2023-02-16T02:22:45.617Z,-0.40
2023-02-16T02:25:35.661Z,-0.44
2023-02-16T02:28:17.577Z,-0.38
2023-02-16T02:31:22.629Z,-0.40
2023-02-16T02:34:12.946Z,-0.43
2023-02-16T02:36:52.025Z,-0.45
2023-02-16T02:39:51.867Z,-0.49
2023-02-16T02:42:42.523Z,-0.48
2023-02-16T02:45:30.158Z,-0.49
2023-02-16T02:47:56.552Z,-0.51
2023-02-16T02:50:39.120Z,-0.52
2023-02-16T02:53:11.372Z,-0.52
2023-02-16T02:56:04.175Z,-0.51
2023-02-16T02:58:53.031Z,-0.43
2023-02-16T03:01:20.922Z,-0.48
2023-02-16T03:03:51.750Z,-0.51
2023-02-16T03:06:24.380Z,-0.42
2023-02-16T03:08:58.238Z,-0.51
2023-02-16T03:11:48.213Z,-0.58
2023-02-16T03:14:46.729Z,-0.54
2023-02-16T03:17:35.904Z,-0.55
2023-02-16T03:20:24.837Z,-0.63
2023-02-16T03:23:10.290Z,-0.56
2023-02-16T03:25:57.780Z,-0.62
2023-02-16T03:28:46.261Z,-0.59
2023-02-16T03:31:16.748Z,-0.66
2023-02-16T03:33:43.447Z,-0.55
2023-02-16T03:36:10.023Z,-0.57
2023-02-16T03:38:37.652Z,-0.61
2023-02-16T03:41:04.647Z,-0.57
2023-02-16T03:43:31.836Z,-0.57
2023-02-16T03:45:58.387Z,-0.62
2023-02-16T03:48:24.806Z,-0.67
2023-02-16T03:50:51.171Z,-0.69
2023-02-16T03:53:19.061Z,-0.71
2023-02-16T03:55:47.860Z,-0.73
2023-02-16T03:58:23.503Z,-0.73
2023-02-16T04:00:50.513Z,-0.72
2023-02-16T04:03:16.993Z,-0.66
2023-02-16T04:05:44.100Z,-0.75
2023-02-16T04:08:10.779Z,-0.72
2023-02-16T04:10:38.478Z,-0.73
2023-02-16T04:13:05.088Z,-0.70
2023-02-16T04:15:32.354Z,-0.74
2023-02-16T04:17:59.527Z,-0.76
2023-02-16T04:20:30.835Z,-0.79
2023-02-16T04:22:57.641Z,-0.74
2023-02-16T04:25:24.519Z,-0.82
2023-02-16T04:27:51.556Z,-0.86
2023-02-16T04:30:26.581Z,-0.79
2023-02-16T04:32:53.380Z,-0.82
2023-02-16T04:35:20.386Z,-0.82
2023-02-16T04:37:46.830Z,-0.84
2023-02-16T04:40:15.185Z,-0.88
2023-02-16T04:42:43.210Z,-0.83
2023-02-16T04:45:11.024Z,-0.74
2023-02-16T04:47:37.944Z,-0.74
2023-02-16T04:50:04.996Z,-0.75
2023-02-16T04:52:32.115Z,-0.76
2023-02-16T04:54:58.453Z,-0.78
2023-02-16T04:57:25.273Z,-0.82
2023-02-16T04:59:51.698Z,-0.79
2023-02-16T05:02:18.056Z,-0.79
2023-02-16T05:04:44.531Z,-0.81
2023-02-16T05:07:10.905Z,-0.85
2023-02-16T05:09:37.243Z,-0.86
2023-02-16T05:12:22.370Z,-0.88
2023-02-16T05:14:49.772Z,-0.84
2023-02-16T05:17:21.447Z,-0.79
2023-02-16T05:19:51.278Z,-0.83
2023-02-16T05:22:18.071Z,-0.83
2023-02-16T05:24:44.766Z,-0.87
2023-02-16T05:27:23.993Z,-0.86
2023-02-16T05:29:50.959Z,-0.89
2023-02-16T05:32:17.825Z,-0.94
2023-02-16T05:34:45.445Z,-0.79
2023-02-16T05:37:16.675Z,-0.78
2023-02-16T05:39:43.661Z,-0.73
2023-02-16T05:42:10.414Z,-0.80
2023-02-16T05:44:37.522Z,-0.83
2023-02-16T05:47:04.070Z,-0.83
2023-02-16T05:49:30.577Z,-0.80
2023-02-16T05:51:56.911Z,-0.85
2023-02-16T05:54:23.328Z,-0.87
2023-02-16T05:56:51.831Z,-0.87
2023-02-16T05:59:18.894Z,-0.84
2023-02-16T06:01:49.535Z,-0.89
2023-02-16T06:04:17.575Z,-0.92
2023-02-16T06:06:44.204Z,-0.92
2023-02-16T06:09:10.695Z,-0.86
2023-02-16T06:11:37.076Z,-0.94
2023-02-16T06:14:12.244Z,-0.88
2023-02-16T06:16:41.119Z,-0.91
2023-02-16T06:19:08.182Z,-0.95
2023-02-16T06:21:35.456Z,-0.95
2023-02-16T06:24:02.027Z,-0.95
2023-02-16T06:26:28.573Z,-0.97
2023-02-16T06:28:56.878Z,-0.92
2023-02-16T06:31:25.074Z,-0.82
2023-02-16T06:33:52.703Z,-0.82
2023-02-16T06:36:19.403Z,-0.82
2023-02-16T06:38:45.989Z,-0.85
2023-02-16T06:41:12.974Z,-0.84
2023-02-16T06:43:39.614Z,-0.83
2023-02-16T06:46:05.954Z,-0.84
2023-02-16T06:48:32.481Z,-0.75
2023-02-16T06:50:58.847Z,-0.76
2023-02-16T06:53:25.464Z,-0.83
2023-02-16T06:55:52.361Z,-0.85
2023-02-16T06:58:18.843Z,-0.82
2023-02-16T07:00:45.371Z,-0.75
2023-02-16T07:03:11.803Z,-0.67
2023-02-16T07:05:38.304Z,-0.69
2023-02-16T07:08:04.830Z,-0.73
2023-02-16T07:10:47.525Z,-0.69
2023-02-16T07:13:15.602Z,-0.69
2023-02-16T07:15:41.987Z,-0.69
2023-02-16T07:18:08.336Z,-0.69
2023-02-16T07:20:34.999Z,-0.60
2023-02-16T07:23:01.375Z,-0.61
2023-02-16T07:25:27.746Z,-0.62
2023-02-16T07:27:54.732Z,-0.57
2023-02-16T07:30:21.329Z,-0.53
2023-02-16T07:32:47.825Z,-0.55
2023-02-16T07:35:14.245Z,-0.59
2023-02-16T07:37:40.599Z,-0.50
2023-02-16T07:40:07.644Z,-0.50
2023-02-16T07:42:33.986Z,-0.41
2023-02-16T07:45:00.381Z,-0.41
2023-02-16T07:47:26.766Z,-0.42
2023-02-16T07:49:53.135Z,-0.40
2023-02-16T07:52:19.486Z,-0.34
2023-02-16T07:54:46.554Z,-0.24
2023-02-16T07:57:12.914Z,-0.16
2023-02-16T07:59:39.352Z,-0.19
2023-02-16T08:02:06.303Z,-0.16
2023-02-16T08:04:34.469Z,-0.11
2023-02-16T08:07:00.968Z,-0.08
2023-02-16T08:09:28.921Z,-0.04
2023-02-16T08:11:55.291Z,0.05
2023-02-16T08:14:21.651Z,0.08
2023-02-16T08:16:51.087Z,0.17
2023-02-16T08:19:18.797Z,0.22
2023-02-16T08:21:49.268Z,0.20
2023-02-16T08:24:15.613Z,0.29
2023-02-16T08:26:43.195Z,0.29
2023-02-16T08:29:12.537Z,0.38
2023-02-16T08:31:39.746Z,0.42
2023-02-16T08:34:07.231Z,0.52
2023-02-16T08:36:36.416Z,0.58
2023-02-16T08:39:06.152Z,0.64
2023-02-16T08:41:34.728Z,0.75
2023-02-16T08:44:02.249Z,0.88
2023-02-16T08:46:29.844Z,0.89
2023-02-16T08:48:59.512Z,0.98
2023-02-16T08:51:30.763Z,1.13
2023-02-16T08:53:58.632Z,1.28
2023-02-16T08:56:25.961Z,1.36
2023-02-16T08:58:52.358Z,1.40
2023-02-16T09:01:18.778Z,1.53
2023-02-16T09:03:46.189Z,1.55
2023-02-16T09:06:14.186Z,1.63
2023-02-16T09:08:40.712Z,1.65
2023-02-16T09:11:15.892Z,1.71
2023-02-16T09:13:43.301Z,1.73
2023-02-16T09:16:13.668Z,1.82
2023-02-16T09:18:40.855Z,1.91
2023-02-16T09:21:12.786Z,1.93
2023-02-16T09:23:40.585Z,1.99
2023-02-16T09:26:08.064Z,2.05
2023-02-16T09:28:38.564Z,2.14
2023-02-16T09:31:26.301Z,2.24
2023-02-16T09:34:19.455Z,2.27
2023-02-16T09:36:47.622Z,2.38
2023-02-16T09:39:14.685Z,2.46
2023-02-16T09:41:40.969Z,2.57
2023-02-16T09:44:25.697Z,2.57
2023-02-16T09:46:57.134Z,2.60
2023-02-16T09:49:32.390Z,2.59
2023-02-16T09:52:24.197Z,2.62
2023-02-16T09:54:57.694Z,2.63
2023-02-16T09:57:42.806Z,2.65
2023-02-16T10:00:38.080Z,2.65
2023-02-16T10:03:32.206Z,2.80
2023-02-16T10:06:28.846Z,2.85
2023-02-16T10:09:07.712Z,2.91
2023-02-16T10:11:54.316Z,3.00
2023-02-16T10:14:47.096Z,2.99
2023-02-16T10:17:32.002Z,3.01
2023-02-16T10:20:06.418Z,3.03
2023-02-16T10:22:50.975Z,3.14
2023-02-16T10:25:39.309Z,3.21
2023-02-16T10:28:21.293Z,3.36
2023-02-16T10:31:03.226Z,3.44
2023-02-16T10:33:58.614Z,3.43
2023-02-16T10:36:34.166Z,3.54
2023-02-16T10:39:24.722Z,3.58
2023-02-16T10:42:01.676Z,3.74
2023-02-16T10:44:37.310Z,3.77
2023-02-16T10:47:06.398Z,3.80
2023-02-16T10:49:35.545Z,3.85
2023-02-16T10:52:03.528Z,3.82
2023-02-16T10:54:32.411Z,3.92
2023-02-16T10:57:22.359Z,4.18
2023-02-16T10:59:49.167Z,4.15
2023-02-16T11:02:30.353Z,4.17
2023-02-16T11:04:58.415Z,4.22
2023-02-16T11:07:28.266Z,4.25
2023-02-16T11:09:57.435Z,4.26
2023-02-16T11:12:39.551Z,4.31
2023-02-16T11:15:26.014Z,4.42
2023-02-16T11:17:57.228Z,4.44
2023-02-16T11:20:50.642Z,4.51
2023-02-16T11:23:17.310Z,4.58
2023-02-16T11:25:58.075Z,4.64
2023-02-16T11:28:33.754Z,4.69
2023-02-16T11:31:19.739Z,4.70
2023-02-16T11:34:05.893Z,4.74
2023-02-16T11:36:41.863Z,4.83
2023-02-16T11:39:20.497Z,4.85
2023-02-16T11:41:53.747Z,4.96
2023-02-16T11:44:35.776Z,5.02
2023-02-16T11:47:21.178Z,5.21
2023-02-16T11:49:48.339Z,5.31
2023-02-16T11:52:33.268Z,5.46
2023-02-16T11:55:01.968Z,5.46
2023-02-16T11:57:31.747Z,5.59
2023-02-16T11:59:58.752Z,5.57
2023-02-16T12:02:42.669Z,5.60
2023-02-16T12:05:12.109Z,5.68
2023-02-16T12:08:06.413Z,5.71
2023-02-16T12:11:01.633Z,5.86
2023-02-16T12:13:41.934Z,5.93
2023-02-16T12:16:42.634Z,6.38
2023-02-16T12:19:54.246Z,6.47
2023-02-16T12:22:33.289Z,6.44
2023-02-16T12:25:24.587Z,6.44
2023-02-16T12:28:16.761Z,6.41
2023-02-16T12:31:22.110Z,6.50
2023-02-16T12:34:19.597Z,6.79
2023-02-16T12:36:57.592Z,6.78
2023-02-16T12:39:45.784Z,6.92
2023-02-16T12:42:30.536Z,6.92
2023-02-16T12:45:03.367Z,6.93
2023-02-16T12:47:39.626Z,6.89
2023-02-16T12:50:27.661Z,7.07
2023-02-16T12:53:07.102Z,7.47
2023-02-16T12:55:43.027Z,7.66
2023-02-16T12:58:19.596Z,7.93
2023-02-16T13:00:50.924Z,7.92
2023-02-16T13:03:25.032Z,7.99
2023-02-16T13:06:02.579Z,8.18
2023-02-16T13:08:39.060Z,8.31
2023-02-16T13:11:16.264Z,8.43
2023-02-16T13:13:44.693Z,8.38
2023-02-16T13:16:30.793Z,8.37
2023-02-16T13:18:57.835Z,8.19
2023-02-16T13:22:03.719Z,8.38
2023-02-16T13:25:00.008Z,8.52
2023-02-16T13:27:42.732Z,8.34
2023-02-16T13:30:56.171Z,8.11
2023-02-16T13:33:28.647Z,7.97
2023-02-16T13:36:24.776Z,7.96
2023-02-16T13:39:09.216Z,7.88
2023-02-16T13:42:17.383Z,7.84
2023-02-16T13:44:50.511Z,7.73
2023-02-16T13:47:25.472Z,7.75
2023-02-16T13:49:58.962Z,7.74
2023-02-16T13:52:39.117Z,7.73
2023-02-16T13:55:21.550Z,7.71
2023-02-16T13:57:51.125Z,7.75
2023-02-16T14:00:38.914Z,7.76
2023-02-16T14:03:17.506Z,7.81
2023-02-16T14:05:49.043Z,7.85
2023-02-16T14:08:16.912Z,7.75
2023-02-16T14:10:55.395Z,7.86
2023-02-16T14:13:37.220Z,7.86
2023-02-16T14:16:17.192Z,7.81
2023-02-16T14:19:16.577Z,7.84
2023-02-16T14:21:46.253Z,7.83
2023-02-16T14:24:34.125Z,7.69
2023-02-16T14:27:11.681Z,7.68
2023-02-16T14:29:44.063Z,7.65
2023-02-16T14:32:13.714Z,7.68
2023-02-16T14:34:48.104Z,7.58
2023-02-16T14:37:17.481Z,7.61
2023-02-16T14:40:06.630Z,7.64
2023-02-16T14:42:35.676Z,7.57
2023-02-16T14:45:47.053Z,7.59
2023-02-16T14:48:34.867Z,7.56
2023-02-16T14:51:19.367Z,7.55
2023-02-16T14:54:10.643Z,7.57
2023-02-16T14:56:48.576Z,7.50
2023-02-16T14:59:34.739Z,7.57
2023-02-16T15:02:23.576Z,7.64
2023-02-16T15:04:50.203Z,7.53
2023-02-16T15:07:18.335Z,7.53
2023-02-16T15:09:45.841Z,7.50
2023-02-16T15:12:23.816Z,7.50
2023-02-16T15:15:01.254Z,7.24
2023-02-16T15:17:33.866Z,7.12
2023-02-16T15:20:38.478Z,6.92
2023-02-16T15:23:16.213Z,6.88
2023-02-16T15:25:42.592Z,6.74
2023-02-16T15:28:09.573Z,6.67
2023-02-16T15:30:48.275Z,6.59
2023-02-16T15:33:37.118Z,6.56
2023-02-16T15:36:11.985Z,6.52
2023-02-16T15:38:40.618Z,6.34
2023-02-16T15:41:09.933Z,6.24
2023-02-16T15:43:39.918Z,6.09
2023-02-16T15:46:13.937Z,6.07
2023-02-16T15:48:41.013Z,5.97
2023-02-16T15:51:15.626Z,5.89
2023-02-16T15:53:49.973Z,5.79
2023-02-16T15:56:29.562Z,5.75
2023-02-16T15:58:59.590Z,5.64
2023-02-16T16:01:33.133Z,5.56
2023-02-16T16:04:21.397Z,5.46
2023-02-16T16:06:48.314Z,5.36
2023-02-16T16:09:30.916Z,5.26
2023-02-16T16:12:01.575Z,5.24
2023-02-16T16:14:29.070Z,5.13
2023-02-16T16:16:55.883Z,5.02
2023-02-16T16:19:34.687Z,4.91
2023-02-16T16:22:01.487Z,4.84
2023-02-16T16:24:32.515Z,4.79
2023-02-16T16:27:01.529Z,4.67
2023-02-16T16:29:46.767Z,4.60
2023-02-16T16:32:29.798Z,4.54
2023-02-16T16:34:56.622Z,4.47
2023-02-16T16:37:33.056Z,4.42
2023-02-16T16:40:04.640Z,4.36
2023-02-16T16:42:31.282Z,4.33
2023-02-16T16:45:07.812Z,4.33
2023-02-16T16:47:41.336Z,4.25
2023-02-16T16:50:32.307Z,4.15
2023-02-16T16:52:58.811Z,4.19
2023-02-16T16:55:32.307Z,4.07
2023-02-16T16:58:06.479Z,4.06
2023-02-16T17:00:36.274Z,3.97
2023-02-16T17:03:05.163Z,3.94
2023-02-16T17:05:31.797Z,3.92
2023-02-16T17:07:58.258Z,3.93
2023-02-16T17:10:24.901Z,4.00
2023-02-16T17:12:54.881Z,3.96
2023-02-16T17:16:03.785Z,3.85
2023-02-16T17:18:30.455Z,3.80
2023-02-16T17:20:57.607Z,3.82
2023-02-16T17:23:24.015Z,3.71
2023-02-16T17:25:50.588Z,3.71
2023-02-16T17:28:18.862Z,3.73
2023-02-16T17:30:45.571Z,3.73
2023-02-16T17:33:11.983Z,3.72
2023-02-16T17:35:40.527Z,3.75
2023-02-16T17:38:08.914Z,3.75
2023-02-16T17:40:35.261Z,3.69
2023-02-16T17:43:01.800Z,3.69
2023-02-16T17:45:28.197Z,3.67
2023-02-16T17:47:54.717Z,3.63
2023-02-16T17:50:21.245Z,3.66
2023-02-16T17:52:47.621Z,3.67
2023-02-16T17:55:14.242Z,3.67
2023-02-16T17:57:40.683Z,3.66
2023-02-16T18:00:13.139Z,3.70
2023-02-16T18:02:39.603Z,3.64
2023-02-16T18:05:06.388Z,3.63
2023-02-16T18:07:32.743Z,3.60
2023-02-16T18:09:59.159Z,3.58
2023-02-16T18:12:28.090Z,3.58
2023-02-16T18:14:54.728Z,3.57
2023-02-16T18:17:21.110Z,3.55
2023-02-16T18:19:47.549Z,3.53
2023-02-16T18:22:13.918Z,3.51
2023-02-16T18:24:40.250Z,3.50
2023-02-16T18:27:07.053Z,3.49
2023-02-16T18:29:33.454Z,3.50
2023-02-16T18:32:00.839Z,3.50
2023-02-16T18:34:27.222Z,3.50
2023-02-16T18:36:53.597Z,3.46
2023-02-16T18:39:19.941Z,3.51
2023-02-16T18:41:46.353Z,3.45
2023-02-16T18:44:12.689Z,3.46
2023-02-16T18:46:39.052Z,3.46
2023-02-16T18:49:06.286Z,3.45
2023-02-16T18:51:33.527Z,3.45
2023-02-16T18:53:59.910Z,3.45
2023-02-16T18:56:27.448Z,3.49
2023-02-16T18:58:54.354Z,3.55
2023-02-16T19:01:30.571Z,3.52
2023-02-16T19:03:57.049Z,3.49
2023-02-16T19:06:23.777Z,3.47
2023-02-16T19:08:51.343Z,3.49
2023-02-16T19:11:22.075Z,3.49
2023-02-16T19:13:48.848Z,3.49
2023-02-16T19:16:16.325Z,3.46
2023-02-16T19:18:42.747Z,3.47
2023-02-16T19:21:11.125Z,3.54
2023-02-16T19:23:37.693Z,3.46
2023-02-16T19:26:08.767Z,3.46
2023-02-16T19:28:35.291Z,3.44
2023-02-16T19:31:03.539Z,3.45
2023-02-16T19:33:30.172Z,3.46
2023-02-16T19:36:05.372Z,3.46
2023-02-16T19:38:32.717Z,3.46
2023-02-16T19:41:00.245Z,3.49
2023-02-16T19:43:27.264Z,3.62
2023-02-16T19:45:53.681Z,4.08
2023-02-16T19:48:20.118Z,4.01
2023-02-16T19:50:46.519Z,3.91
2023-02-16T19:53:12.869Z,3.88
2023-02-16T19:55:42.714Z,3.90
2023-02-16T19:58:09.109Z,3.87
2023-02-16T20:00:36.911Z,3.87
2023-02-16T20:03:05.514Z,3.88
2023-02-16T20:05:32.700Z,4.08
2023-02-16T20:07:59.097Z,4.03
2023-02-16T20:10:25.583Z,4.03
2023-02-16T20:12:51.948Z,4.00
2023-02-16T20:15:18.443Z,4.10
2023-02-16T20:17:44.780Z,4.19
2023-02-16T20:20:12.485Z,4.20
2023-02-16T20:22:38.863Z,4.26
2023-02-16T20:25:05.488Z,4.23
2023-02-16T20:27:31.862Z,4.29
2023-02-16T20:29:58.283Z,4.27
2023-02-16T20:32:26.111Z,4.31
2023-02-16T20:34:52.654Z,4.59
2023-02-16T20:37:19.568Z,4.82
2023-02-16T20:39:46.060Z,5.05
2023-02-16T20:42:12.538Z,5.34
2023-02-16T20:44:39.672Z,5.56
2023-02-16T20:47:08.036Z,5.67
2023-02-16T20:49:35.159Z,5.77
2023-02-16T20:52:01.731Z,6.02
2023-02-16T20:54:28.341Z,5.95
2023-02-16T20:56:54.917Z,5.59
2023-02-16T20:59:21.340Z,5.48
2023-02-16T21:01:50.246Z,5.66
2023-02-16T21:04:18.872Z,5.91
2023-02-16T21:06:45.618Z,6.09
2023-02-16T21:09:12.530Z,6.23
2023-02-16T21:11:39.993Z,6.23
2023-02-16T21:14:07.621Z,6.33
2023-02-16T21:16:34.446Z,6.20
2023-02-16T21:19:00.790Z,6.00
2023-02-16T21:21:27.274Z,5.68
2023-02-16T21:23:54.633Z,5.43
2023-02-16T21:26:24.794Z,5.31
2023-02-16T21:28:51.957Z,5.33
2023-02-16T21:31:23.448Z,5.15
2023-02-16T21:33:50.339Z,5.06
2023-02-16T21:36:20.883Z,4.97
2023-02-16T21:38:47.971Z,4.96
2023-02-16T21:41:26.805Z,4.88
2023-02-16T21:44:01.012Z,4.94
2023-02-16T21:46:31.505Z,4.87
2023-02-16T21:48:58.309Z,4.79
2023-02-16T21:51:33.383Z,4.79
2023-02-16T21:53:59.733Z,4.78
2023-02-16T21:56:35.552Z,4.78
2023-02-16T21:59:01.900Z,4.77
2023-02-16T22:01:30.664Z,4.89
2023-02-16T22:03:59.478Z,4.96
2023-02-16T22:06:34.719Z,4.94
2023-02-16T22:09:05.499Z,5.15
2023-02-16T22:11:31.875Z,5.27
2023-02-16T22:14:00.068Z,5.33
2023-02-16T22:16:27.886Z,5.36
2023-02-16T22:19:02.912Z,5.41
2023-02-16T22:21:30.584Z,5.60
2023-02-16T22:23:58.082Z,5.82
2023-02-16T22:26:30.331Z,5.89
2023-02-16T22:28:57.318Z,5.97
2023-02-16T22:31:26.878Z,5.77
2023-02-16T22:33:57.403Z,5.77
2023-02-16T22:36:24.190Z,5.86
2023-02-16T22:38:51.547Z,5.72
2023-02-16T22:41:19.789Z,5.70
2023-02-16T22:43:46.528Z,5.64
2023-02-16T22:46:15.000Z,5.62
2023-02-16T22:48:42.141Z,5.56
2023-02-16T22:51:11.129Z,5.50
2023-02-16T22:53:37.845Z,5.44
2023-02-16T22:56:06.596Z,5.52
2023-02-16T22:58:33.366Z,5.52
2023-02-16T23:01:00.701Z,5.51
2023-02-16T23:03:28.132Z,5.41
2023-02-16T23:05:54.861Z,5.38
2023-02-16T23:08:22.152Z,5.33
2023-02-16T23:11:01.673Z,5.30
2023-02-16T23:13:29.678Z,5.37
2023-02-16T23:15:57.204Z,5.33
2023-02-16T23:18:24.866Z,5.31
2023-02-16T23:20:51.290Z,5.28
2023-02-16T23:23:17.675Z,5.29
2023-02-16T23:25:49.349Z,5.28
2023-02-16T23:28:16.357Z,5.33
2023-02-16T23:30:47.080Z,5.48
2023-02-16T23:33:13.799Z,5.69
2023-02-16T23:35:41.536Z,5.71
2023-02-16T23:38:14.608Z,5.82
2023-02-16T23:40:42.342Z,5.92
2023-02-16T23:43:10.100Z,5.96
2023-02-16T23:45:37.162Z,6.20
2023-02-16T23:48:04.693Z,6.17
2023-02-16T23:50:31.105Z,6.36
2023-02-16T23:52:57.526Z,6.47
2023-02-16T23:55:23.907Z,6.61
2023-02-16T23:57:50.259Z,6.78
